Centropolis, Kansas
Current Conditions -  °F | °C
As of 7:53 AM on Monday 22 Dec 2014 (Local Time) from KIXD Reporting Station
Light Rain Light Rain  
Wind Chill: 36°   Ceiling: 400
Heat Index: 42°   Visibility: 2mi
Dew Point: 41°   Wind: 10mph
Humidity: 96%   Direction: 150°SSE
Pressure: 29.59"   Gusts: NA
Location:  38.6288°N, 95.2897°W
Report Text: KIXD 221353Z 15009KT 2SM -RA BR OVC004 06/05 A2959 RMK AO2 RAE05B30 SLP022 P0000 T00560050
Loading
Personal Weather Stations






























Interactive Weather Map New forecast layout! Learn more

10-Day Weather Forecast

Advertisements
Track Severe Weather on mobile